Time,TemperatureF,DewpointF,PressureIn,WindDirection,WindDirectionDegrees,WindSpeedMPH,WindSpeedGustMPH,Humidity,HourlyPrecipIn,Conditions,Clouds,dailyrainin,SoftwareType,DateUTC
2013-12-07 00:01:00,66.5,64.1,30.11,SW,217,0.0,0.0,92,0.00,CLR,,0.00,WeatherDisplay:10.37,2013-12-07 05:01:00,
2013-12-07 00:06:00,66.5,64.1,30.11,SW,217,0.0,0.0,92,0.00,CLR,,0.00,WeatherDisplay:10.37,2013-12-07 05:06:00,
2013-12-07 00:11:00,66.4,64.0,30.11,SW,217,0.0,0.0,92,0.00,CLR,,0.00,WeatherDisplay:10.37,2013-12-07 05:11:00,
2013-12-07 00:16:00,66.4,64.0,30.11,SW,217,0.0,0.0,92,0.00,CLR,,0.00,WeatherDisplay:10.37,2013-12-07 05:16:00,
2013-12-07 00:17:00,66.4,64.0,30.11,SW,218,0.0,0.0,92,0.00,CLR,,0.00,WeatherDisplay:10.37,2013-12-07 05:17:00,
2013-12-07 00:22:00,66.4,64.3,30.11,SW,218,0.0,0.0,93,0.00,CLR,,0.00,WeatherDisplay:10.37,2013-12-07 05:22:00,
2013-12-07 00:27:00,66.4,64.3,30.11,SW,217,0.0,0.0,93,0.00,CLR,,0.00,WeatherDisplay:10.37,2013-12-07 05:27:00,
2013-12-07 00:32:00,66.3,64.2,30.11,SW,217,0.0,0.0,93,0.00,CLR,,0.00,WeatherDisplay:10.37,2013-12-07 05:32:00,
2013-12-07 00:37:00,66.3,64.2,30.11,SW,217,0.0,0.0,93,0.00,CLR,,0.00,WeatherDisplay:10.37,2013-12-07 05:37:00,
2013-12-07 00:42:00,66.2,64.1,30.11,SW,217,0.0,0.0,93,0.00,CLR,,0.00,WeatherDisplay:10.37,2013-12-07 05:42:00,
2013-12-07 00:47:00,66.1,64.0,30.11,SW,217,0.0,0.0,93,0.00,CLR,,0.00,WeatherDisplay:10.37,2013-12-07 05:47:00,
2013-12-07 00:52:00,65.9,63.8,30.10,SW,216,0.0,0.0,93,0.00,CLR,,0.00,WeatherDisplay:10.37,2013-12-07 05:52:00,
2013-12-07 00:57:00,65.8,63.7,30.10,SW,217,0.0,0.0,93,0.00,CLR,,0.00,WeatherDisplay:10.37,2013-12-07 05:57:00,
2013-12-07 01:02:00,65.7,63.6,30.10,SW,217,0.0,0.0,93,0.00,CLR,,0.00,WeatherDisplay:10.37,2013-12-07 06:02:00,
2013-12-07 01:07:00,65.6,63.5,30.10,SW,217,0.0,0.0,93,0.00,CLR,,0.00,WeatherDisplay:10.37,2013-12-07 06:07:00,
2013-12-07 01:12:00,65.6,63.5,30.11,SW,217,0.0,0.0,93,0.00,CLR,,0.00,WeatherDisplay:10.37,2013-12-07 06:12:00,
2013-12-07 01:17:00,65.5,63.4,30.11,SW,217,0.0,0.0,93,0.00,CLR,,0.00,WeatherDisplay:10.37,2013-12-07 06:17:00,
2013-12-07 01:22:00,65.4,63.3,30.11,SW,217,0.0,0.0,93,0.00,CLR,,0.00,WeatherDisplay:10.37,2013-12-07 06:22:00,
2013-12-07 01:27:00,65.2,63.1,30.11,SW,217,0.0,0.0,93,0.00,CLR,,0.00,WeatherDisplay:10.37,2013-12-07 06:27:00,
2013-12-07 01:32:00,65.1,63.0,30.11,SW,217,0.0,0.0,93,0.00,CLR,,0.00,WeatherDisplay:10.37,2013-12-07 06:32:00,
2013-12-07 01:37:00,65.0,62.9,30.11,SW,217,0.0,0.0,93,0.00,CLR,,0.00,WeatherDisplay:10.37,2013-12-07 06:37:00,
2013-12-07 01:42:00,64.9,62.8,30.11,SW,217,0.0,0.0,93,0.00,CLR,,0.00,WeatherDisplay:10.37,2013-12-07 06:42:00,
2013-12-07 01:47:00,64.8,62.7,30.11,SW,217,0.0,0.0,93,0.00,CLR,,0.00,WeatherDisplay:10.37,2013-12-07 06:47:00,
2013-12-07 01:52:00,64.6,62.5,30.11,SW,217,0.0,0.0,93,0.00,CLR,,0.00,WeatherDisplay:10.37,2013-12-07 06:52:00,
2013-12-07 01:57:00,64.5,62.4,30.11,SW,217,0.0,0.0,93,0.00,CLR,,0.00,WeatherDisplay:10.37,2013-12-07 06:57:00,
2013-12-07 02:02:00,64.3,62.2,30.11,SW,217,0.0,0.0,93,0.00,CLR,,0.00,WeatherDisplay:10.37,2013-12-07 07:02:00,
2013-12-07 02:07:00,64.1,62.0,30.11,SW,217,0.0,0.0,93,0.00,CLR,,0.00,WeatherDisplay:10.37,2013-12-07 07:07:00,
2013-12-07 02:12:00,64.0,61.9,30.11,SW,217,0.0,0.0,93,0.00,CLR,,0.00,WeatherDisplay:10.37,2013-12-07 07:12:00,
2013-12-07 02:17:00,63.8,61.7,30.11,SW,217,0.0,0.0,93,0.00,CLR,,0.00,WeatherDisplay:10.37,2013-12-07 07:17:00,
2013-12-07 02:22:00,63.8,61.7,30.11,SW,217,0.0,0.0,93,0.00,CLR,,0.00,WeatherDisplay:10.37,2013-12-07 07:22:00,
2013-12-07 02:27:00,63.8,61.7,30.11,SW,217,0.0,0.0,93,0.00,CLR,,0.00,WeatherDisplay:10.37,2013-12-07 07:27:00,
2013-12-07 02:32:00,64.0,62.2,30.11,South,187,3.5,3.5,94,0.00,CLR,,0.00,WeatherDisplay:10.37,2013-12-07 07:32:00,
2013-12-07 02:37:00,64.2,62.4,30.10,South,187,2.3,2.3,94,0.00,CLR,,0.00,WeatherDisplay:10.37,2013-12-07 07:37:00,
2013-12-07 02:42:00,64.6,63.1,30.10,South,183,0.0,0.0,95,0.00,CLR,,0.00,WeatherDisplay:10.37,2013-12-07 07:42:00,
2013-12-07 02:47:00,64.8,63.3,30.11,South,180,0.0,0.0,95,0.00,CLR,,0.00,WeatherDisplay:10.37,2013-12-07 07:47:00,
2013-12-07 02:52:00,65.0,63.5,30.11,South,181,3.5,3.5,95,0.00,CLR,,0.00,WeatherDisplay:10.37,2013-12-07 07:52:00,
2013-12-07 02:57:00,65.1,63.6,30.10,South,182,0.0,0.0,95,0.00,CLR,,0.00,WeatherDisplay:10.37,2013-12-07 07:57:00,
2013-12-07 03:02:00,65.2,63.7,30.10,South,180,3.5,3.5,95,0.00,CLR,,0.00,WeatherDisplay:10.37,2013-12-07 08:02:00,
2013-12-07 03:07:00,65.2,63.7,30.10,South,172,3.5,0.0,95,0.00,CLR,,0.00,WeatherDisplay:10.37,2013-12-07 08:07:00,
2013-12-07 03:12:00,65.3,63.8,30.10,SSE,153,5.8,5.8,95,0.00,CLR,,0.00,WeatherDisplay:10.37,2013-12-07 08:12:00,
2013-12-07 03:17:00,65.4,63.9,30.10,South,184,3.5,0.0,95,0.00,CLR,,0.00,WeatherDisplay:10.37,2013-12-07 08:17:00,
2013-12-07 03:22:00,65.4,63.9,30.10,SSE,153,3.0,3.0,95,0.00,CLR,,0.00,WeatherDisplay:10.37,2013-12-07 08:22:00,
2013-12-07 03:27:00,65.6,65.6,30.10,South,176,4.6,4.6,100,0.00,CLR,,0.00,WeatherDisplay:10.37,2013-12-07 08:27:00,
2013-12-07 03:32:00,65.7,65.7,30.11,SW,232,3.5,3.5,100,0.00,CLR,,0.00,WeatherDisplay:10.37,2013-12-07 08:32:00,
2013-12-07 03:37:00,65.8,65.8,30.11,SW,236,0.0,0.0,100,0.00,CLR,,0.00,WeatherDisplay:10.37,2013-12-07 08:37:00,
2013-12-07 03:42:00,65.9,65.9,30.11,SW,236,0.0,0.0,100,0.00,CLR,,0.00,WeatherDisplay:10.37,2013-12-07 08:42:00,
2013-12-07 03:47:00,66.0,66.0,30.11,WSW,241,3.5,3.5,100,0.00,CLR,,0.00,WeatherDisplay:10.37,2013-12-07 08:47:00,
2013-12-07 03:52:00,66.0,66.0,30.11,WSW,241,0.0,0.0,100,0.00,CLR,,0.00,WeatherDisplay:10.37,2013-12-07 08:52:00,
2013-12-07 03:57:00,66.1,66.1,30.11,WSW,245,3.5,3.5,100,0.00,CLR,,0.00,WeatherDisplay:10.37,2013-12-07 08:57:00,
2013-12-07 04:02:00,66.2,66.2,30.11,WSW,245,0.0,0.0,100,0.00,CLR,,0.00,WeatherDisplay:10.37,2013-12-07 09:02:00,
2013-12-07 04:07:00,66.3,66.3,30.11,SW,232,0.0,0.0,100,0.00,CLR,,0.00,WeatherDisplay:10.37,2013-12-07 09:07:00,
2013-12-07 04:12:00,66.3,66.3,30.11,SW,232,3.5,3.5,100,0.00,CLR,,0.00,WeatherDisplay:10.37,2013-12-07 09:12:00,
2013-12-07 04:17:00,66.3,66.3,30.12,SW,232,3.5,3.5,100,0.00,CLR,,0.00,WeatherDisplay:10.37,2013-12-07 09:17:00,
2013-12-07 04:22:00,66.3,66.3,30.12,West,279,3.5,3.5,100,0.00,CLR,,0.00,WeatherDisplay:10.37,2013-12-07 09:22:00,
2013-12-07 04:27:00,66.3,66.3,30.12,West,275,0.0,0.0,100,0.00,CLR,,0.00,WeatherDisplay:10.37,2013-12-07 09:27:00,
2013-12-07 04:32:00,66.3,66.3,30.12,SW,233,0.0,0.0,100,0.00,CLR,,0.00,WeatherDisplay:10.37,2013-12-07 09:32:00,
2013-12-07 04:37:00,66.3,66.3,30.12,WNW,283,0.0,0.1,100,0.00,CLR,,0.00,WeatherDisplay:10.37,2013-12-07 09:37:00,
2013-12-07 04:42:00,66.3,66.3,30.12,WSW,250,1.0,1.0,100,0.00,CLR,,0.00,WeatherDisplay:10.37,2013-12-07 09:42:00,
2013-12-07 04:47:00,66.4,66.4,30.12,WSW,250,0.0,0.0,100,0.00,CLR,,0.00,WeatherDisplay:10.37,2013-12-07 09:47:00,
2013-12-07 04:52:00,66.4,66.4,30.12,WSW,250,3.5,0.0,100,0.00,CLR,,0.00,WeatherDisplay:10.37,2013-12-07 09:52:00,
2013-12-07 04:57:00,66.4,66.4,30.12,SW,232,0.0,0.0,100,0.00,CLR,,0.00,WeatherDisplay:10.37,2013-12-07 09:57:00,
2013-12-07 05:02:00,66.5,66.5,30.12,SW,231,0.0,0.0,100,0.00,CLR,,0.00,WeatherDisplay:10.37,2013-12-07 10:02:00,
2013-12-07 05:07:00,66.5,66.5,30.12,SW,232,0.0,0.3,100,0.00,CLR,,0.00,WeatherDisplay:10.37,2013-12-07 10:07:00,
2013-12-07 05:12:00,66.5,66.5,30.12,SW,230,0.0,0.0,100,0.00,CLR,,0.00,WeatherDisplay:10.37,2013-12-07 10:12:00,
2013-12-07 05:17:00,66.5,66.5,30.12,SW,232,0.0,0.0,100,0.00,CLR,,0.00,WeatherDisplay:10.37,2013-12-07 10:17:00,
2013-12-07 05:22:00,66.6,66.6,30.12,SW,232,0.0,0.0,100,0.00,CLR,,0.00,WeatherDisplay:10.37,2013-12-07 10:22:00,
2013-12-07 05:27:00,66.6,66.6,30.12,SW,231,0.0,0.0,100,0.00,CLR,,0.00,WeatherDisplay:10.37,2013-12-07 10:27:00,
2013-12-07 05:32:00,66.6,66.6,30.12,SW,232,0.0,0.0,100,0.00,CLR,,0.00,WeatherDisplay:10.37,2013-12-07 10:32:00,
2013-12-07 05:37:00,66.6,66.6,30.12,SW,232,0.0,0.0,100,0.00,CLR,,0.00,WeatherDisplay:10.37,2013-12-07 10:37:00,
2013-12-07 05:42:00,66.6,66.6,30.12,SW,232,0.0,0.0,100,0.00,CLR,,0.00,WeatherDisplay:10.37,2013-12-07 10:42:00,
2013-12-07 05:47:00,66.6,66.6,30.13,SW,232,0.0,0.0,100,0.00,CLR,,0.00,WeatherDisplay:10.37,2013-12-07 10:47:00,
2013-12-07 05:52:00,66.7,66.7,30.13,SW,230,0.0,0.0,100,0.00,CLR,,0.00,WeatherDisplay:10.37,2013-12-07 10:52:00,
2013-12-07 05:57:00,66.7,66.7,30.13,SW,231,0.0,0.0,100,0.00,CLR,,0.00,WeatherDisplay:10.37,2013-12-07 10:57:00,
2013-12-07 06:02:00,66.7,66.7,30.13,SW,232,0.0,0.0,100,0.00,CLR,,0.00,WeatherDisplay:10.37,2013-12-07 11:02:00,
2013-12-07 06:07:00,66.7,66.7,30.13,SW,232,0.0,0.0,100,0.00,CLR,,0.00,WeatherDisplay:10.37,2013-12-07 11:07:00,
2013-12-07 06:12:00,66.7,66.7,30.13,SW,232,0.0,0.0,100,0.00,CLR,,0.00,WeatherDisplay:10.37,2013-12-07 11:12:00,
2013-12-07 06:17:00,66.7,66.7,30.14,SW,232,0.0,0.0,100,0.00,CLR,,0.00,WeatherDisplay:10.37,2013-12-07 11:17:00,
2013-12-07 06:22:00,66.8,66.8,30.14,SW,232,0.0,0.0,100,0.00,CLR,,0.00,WeatherDisplay:10.37,2013-12-07 11:22:00,
2013-12-07 06:27:00,66.8,66.8,30.14,SW,232,0.0,0.0,100,0.00,CLR,,0.00,WeatherDisplay:10.37,2013-12-07 11:27:00,
2013-12-07 06:32:00,66.9,66.9,30.14,SW,232,0.0,0.0,100,0.00,CLR,,0.00,WeatherDisplay:10.37,2013-12-07 11:32:00,
2013-12-07 06:37:00,66.9,66.9,30.14,SW,232,0.0,0.0,100,0.00,CLR,,0.00,WeatherDisplay:10.37,2013-12-07 11:37:00,
2013-12-07 06:42:00,66.9,66.9,30.15,SW,232,0.0,0.0,100,0.00,CLR,,0.00,WeatherDisplay:10.37,2013-12-07 11:42:00,
2013-12-07 06:47:00,66.9,66.9,30.15,SW,230,0.0,0.0,100,0.00,CLR,,0.00,WeatherDisplay:10.37,2013-12-07 11:47:00,
2013-12-07 06:52:00,66.9,66.9,30.15,SW,230,0.0,0.0,100,0.00,CLR,,0.00,WeatherDisplay:10.37,2013-12-07 11:52:00,
2013-12-07 06:57:00,66.8,66.8,30.15,SW,232,0.0,0.0,100,0.00,CLR,,0.00,WeatherDisplay:10.37,2013-12-07 11:57:00,
2013-12-07 07:02:00,66.8,66.8,30.16,SW,232,0.0,0.0,100,0.00,CLR,,0.00,WeatherDisplay:10.37,2013-12-07 12:02:00,
2013-12-07 07:07:00,66.9,66.9,30.16,SSW,196,2.3,0.0,100,0.00,CLR,,0.00,WeatherDisplay:10.37,2013-12-07 12:07:00,
2013-12-07 07:12:00,66.9,66.9,30.16,SSW,197,0.0,0.0,100,0.00,CLR,,0.00,WeatherDisplay:10.37,2013-12-07 12:12:00,
2013-12-07 07:17:00,66.9,66.9,30.16,SSW,196,0.0,0.0,100,0.00,CLR,,0.00,WeatherDisplay:10.37,2013-12-07 12:17:00,
2013-12-07 07:22:00,66.9,66.9,30.16,SSW,196,0.0,0.0,100,0.00,CLR,,0.00,WeatherDisplay:10.37,2013-12-07 12:22:00,
2013-12-07 07:27:00,67.0,67.0,30.17,SSW,198,0.0,0.0,100,0.00,CLR,,0.00,WeatherDisplay:10.37,2013-12-07 12:27:00,
2013-12-07 07:32:00,67.0,67.0,30.17,SSW,197,0.0,0.0,100,0.00,CLR,,0.00,WeatherDisplay:10.37,2013-12-07 12:32:00,
2013-12-07 07:37:00,67.0,67.0,30.17,SSW,196,0.0,0.0,100,0.00,CLR,,0.00,WeatherDisplay:10.37,2013-12-07 12:37:00,
2013-12-07 07:42:00,67.0,67.0,30.17,SSW,196,0.0,0.0,100,0.00,CLR,,0.00,WeatherDisplay:10.37,2013-12-07 12:42:00,
2013-12-07 07:47:00,67.1,67.1,30.17,SSW,196,0.0,0.0,100,0.00,CLR,,0.00,WeatherDisplay:10.37,2013-12-07 12:47:00,
2013-12-07 07:52:00,67.1,67.1,30.17,SSW,196,1.2,0.0,100,0.00,CLR,,0.00,WeatherDisplay:10.37,2013-12-07 12:52:00,
2013-12-07 07:57:00,67.1,67.1,30.17,SSW,196,0.0,0.0,100,0.00,CLR,,0.00,WeatherDisplay:10.37,2013-12-07 12:57:00,
2013-12-07 08:02:00,67.2,67.2,30.17,SSW,198,0.0,0.0,100,0.00,CLR,,0.00,WeatherDisplay:10.37,2013-12-07 13:02:00,
2013-12-07 08:07:00,67.2,67.2,30.17,SSW,196,0.0,0.0,100,0.00,CLR,,0.00,WeatherDisplay:10.37,2013-12-07 13:07:00,
2013-12-07 08:12:00,67.3,67.3,30.17,SSW,196,0.0,0.0,100,0.00,CLR,,0.00,WeatherDisplay:10.37,2013-12-07 13:12:00,
2013-12-07 08:17:00,67.4,67.4,30.17,SSW,197,0.0,0.0,100,0.00,CLR,,0.00,WeatherDisplay:10.37,2013-12-07 13:17:00,
2013-12-07 08:22:00,67.4,67.4,30.18,SSW,198,0.0,0.0,100,0.00,CLR,,0.00,WeatherDisplay:10.37,2013-12-07 13:22:00,
2013-12-07 08:27:00,67.5,67.5,30.18,SSW,197,0.0,0.0,100,0.00,CLR,,0.00,WeatherDisplay:10.37,2013-12-07 13:27:00,
2013-12-07 08:32:00,67.6,67.6,30.18,SSW,195,2.0,2.0,100,0.00,CLR,,0.00,WeatherDisplay:10.37,2013-12-07 13:32:00,
2013-12-07 08:37:00,67.7,67.7,30.18,SSW,195,0.0,0.0,100,0.00,CLR,,0.00,WeatherDisplay:10.37,2013-12-07 13:37:00,
2013-12-07 08:42:00,67.8,67.8,30.18,SW,236,0.0,0.0,100,0.00,CLR,,0.00,WeatherDisplay:10.37,2013-12-07 13:42:00,
2013-12-07 08:47:00,67.9,67.9,30.18,SW,236,3.5,3.5,100,0.00,CLR,,0.00,WeatherDisplay:10.37,2013-12-07 13:47:00,
2013-12-07 08:52:00,68.0,68.0,30.19,SW,236,4.0,4.0,100,0.00,CLR,,0.00,WeatherDisplay:10.37,2013-12-07 13:52:00,
2013-12-07 08:57:00,68.1,68.1,30.19,SW,236,3.0,3.0,100,0.00,CLR,,0.00,WeatherDisplay:10.37,2013-12-07 13:57:00,
2013-12-07 09:02:00,68.2,68.2,30.19,SSW,200,3.5,0.0,100,0.00,CLR,,0.00,WeatherDisplay:10.37,2013-12-07 14:02:00,
2013-12-07 09:07:00,68.3,68.3,30.19,SW,223,5.0,5.0,100,0.00,CLR,,0.00,WeatherDisplay:10.37,2013-12-07 14:07:00,
2013-12-07 09:12:00,68.5,68.5,30.19,South,171,3.5,3.5,100,0.00,CLR,,0.00,WeatherDisplay:10.37,2013-12-07 14:12:00,
2013-12-07 09:17:00,69.2,69.2,30.19,South,178,5.0,5.0,100,0.00,CLR,,0.00,WeatherDisplay:10.37,2013-12-07 14:17:00,
2013-12-07 09:22:00,69.3,69.3,30.19,SW,227,6.9,6.9,100,0.00,CLR,,0.00,WeatherDisplay:10.37,2013-12-07 14:22:00,
2013-12-07 09:27:00,69.6,69.6,30.19,SSW,196,4.6,4.6,100,0.00,CLR,,0.00,WeatherDisplay:10.37,2013-12-07 14:27:00,
2013-12-07 09:32:00,69.7,69.7,30.19,WSW,238,5.0,5.0,100,0.00,CLR,,0.00,WeatherDisplay:10.37,2013-12-07 14:32:00,
2013-12-07 09:37:00,69.9,69.9,30.19,SW,232,3.5,0.0,100,0.00,CLR,,0.00,WeatherDisplay:10.37,2013-12-07 14:37:00,
2013-12-07 09:42:00,70.3,70.3,30.20,SSW,196,2.3,2.3,100,0.00,CLR,,0.00,WeatherDisplay:10.37,2013-12-07 14:42:00,
2013-12-07 09:47:00,70.5,70.5,30.20,WSW,241,4.6,4.6,100,0.00,CLR,,0.00,WeatherDisplay:10.37,2013-12-07 14:47:00,
2013-12-07 09:52:00,71.0,71.0,30.20,SSW,213,4.6,4.6,100,0.00,CLR,,0.00,WeatherDisplay:10.37,2013-12-07 14:52:00,
2013-12-07 09:57:00,71.1,71.1,30.20,WSW,253,4.6,4.6,100,0.00,CLR,,0.00,WeatherDisplay:10.37,2013-12-07 14:57:00,
2013-12-07 10:02:00,71.3,69.8,30.20,SSW,211,5.8,5.8,95,0.00,CLR,,0.00,WeatherDisplay:10.37,2013-12-07 15:02:00,
2013-12-07 10:07:00,71.4,69.6,30.20,SW,225,5.8,5.8,94,0.00,CLR,,0.00,WeatherDisplay:10.37,2013-12-07 15:07:00,
2013-12-07 10:12:00,71.6,69.8,30.20,SW,225,0.0,0.0,94,0.00,CLR,,0.00,WeatherDisplay:10.37,2013-12-07 15:12:00,
2013-12-07 10:17:00,71.7,69.9,30.20,WSW,241,3.5,0.0,94,0.00,CLR,,0.00,WeatherDisplay:10.37,2013-12-07 15:17:00,
2013-12-07 10:22:00,72.0,69.9,30.20,SSW,194,5.0,5.0,93,0.00,CLR,,0.00,WeatherDisplay:10.37,2013-12-07 15:22:00,
2013-12-07 10:27:00,72.1,69.6,30.20,SW,225,6.0,6.0,92,0.00,CLR,,0.00,WeatherDisplay:10.37,2013-12-07 15:27:00,
2013-12-07 10:32:00,72.1,69.3,30.20,WSW,249,5.8,5.8,91,0.00,CLR,,0.00,WeatherDisplay:10.37,2013-12-07 15:32:00,
2013-12-07 10:37:00,72.1,69.3,30.20,South,173,4.6,0.0,91,0.00,CLR,,0.00,WeatherDisplay:10.37,2013-12-07 15:37:00,
2013-12-07 10:42:00,72.3,69.2,30.20,SW,225,4.6,4.6,90,0.00,CLR,,0.00,WeatherDisplay:10.37,2013-12-07 15:42:00,
2013-12-07 10:47:00,72.5,69.4,30.20,SW,232,4.6,4.6,90,0.00,CLR,,0.00,WeatherDisplay:10.37,2013-12-07 15:47:00,
2013-12-07 10:52:00,72.7,69.3,30.20,SW,234,5.0,5.0,89,0.00,CLR,,0.00,WeatherDisplay:10.37,2013-12-07 15:52:00,
2013-12-07 10:57:00,72.9,69.5,30.20,SW,233,6.9,6.9,89,0.00,CLR,,0.00,WeatherDisplay:10.37,2013-12-07 15:57:00,
2013-12-07 11:02:00,73.2,69.8,30.20,SSW,209,6.0,6.0,89,0.00,CLR,,0.00,WeatherDisplay:10.37,2013-12-07 16:02:00,
2013-12-07 11:07:00,73.7,69.9,30.20,SW,231,4.6,4.6,88,0.00,CLR,,0.00,WeatherDisplay:10.37,2013-12-07 16:07:00,
2013-12-07 11:12:00,74.3,70.2,30.19,WSW,257,6.9,6.9,87,0.00,CLR,,0.00,WeatherDisplay:10.37,2013-12-07 16:12:00,
2013-12-07 11:17:00,74.7,70.2,30.19,SW,236,3.5,0.0,86,0.00,CLR,,0.00,WeatherDisplay:10.37,2013-12-07 16:17:00,
2013-12-07 11:22:00,74.9,70.4,30.19,SW,221,0.0,0.0,86,0.00,CLR,,0.00,WeatherDisplay:10.37,2013-12-07 16:22:00,
2013-12-07 11:27:00,75.5,70.3,30.19,SSW,209,10.4,10.4,84,0.00,CLR,,0.00,WeatherDisplay:10.37,2013-12-07 16:27:00,
2013-12-07 11:32:00,76.1,70.6,30.19,WSW,250,3.5,3.5,83,0.00,CLR,,0.00,WeatherDisplay:10.37,2013-12-07 16:32:00,
2013-12-07 11:37:00,76.4,70.9,30.19,West,259,6.9,6.9,83,0.00,CLR,,0.00,WeatherDisplay:10.37,2013-12-07 16:37:00,
2013-12-07 11:42:00,76.5,70.2,30.18,SW,225,6.0,6.0,81,0.00,CLR,,0.00,WeatherDisplay:10.37,2013-12-07 16:42:00,
2013-12-07 11:47:00,76.7,70.1,30.18,West,268,6.9,6.9,80,0.00,CLR,,0.00,WeatherDisplay:10.37,2013-12-07 16:47:00,
2013-12-07 11:52:00,76.7,70.1,30.18,SW,214,9.0,9.0,80,0.00,CLR,,0.00,WeatherDisplay:10.37,2013-12-07 16:52:00,
2013-12-07 11:57:00,76.5,69.9,30.18,WSW,241,8.1,8.1,80,0.00,CLR,,0.00,WeatherDisplay:10.37,2013-12-07 16:57:00,
2013-12-07 12:02:00,76.4,69.8,30.18,WSW,240,9.2,9.2,80,0.00,CLR,,0.00,WeatherDisplay:10.37,2013-12-07 17:02:00,
2013-12-07 12:07:00,76.1,69.8,30.18,SW,219,5.0,5.0,81,0.00,CLR,,0.00,WeatherDisplay:10.37,2013-12-07 17:07:00,
2013-12-07 12:12:00,76.1,69.8,30.17,SW,232,9.2,9.2,81,0.00,CLR,,0.00,WeatherDisplay:10.37,2013-12-07 17:12:00,
2013-12-07 12:17:00,76.1,69.8,30.17,SW,229,8.0,8.0,81,0.00,CLR,,0.00,WeatherDisplay:10.37,2013-12-07 17:17:00,
2013-12-07 12:22:00,76.1,69.8,30.17,SW,225,9.2,9.2,81,0.00,CLR,,0.00,WeatherDisplay:10.37,2013-12-07 17:22:00,
2013-12-07 12:27:00,76.1,69.8,30.17,SW,224,6.9,6.9,81,0.00,CLR,,0.00,WeatherDisplay:10.37,2013-12-07 17:27:00,
2013-12-07 12:32:00,76.2,69.9,30.17,WSW,241,5.8,5.8,81,0.00,CLR,,0.00,WeatherDisplay:10.37,2013-12-07 17:32:00,
2013-12-07 12:37:00,76.4,70.1,30.17,SSW,209,11.5,11.5,81,0.00,CLR,,0.00,WeatherDisplay:10.37,2013-12-07 17:37:00,
2013-12-07 12:42:00,76.7,70.1,30.16,WSW,244,4.6,4.6,80,0.00,CLR,,0.00,WeatherDisplay:10.37,2013-12-07 17:42:00,
2013-12-07 12:47:00,77.0,70.7,30.16,WSW,248,3.5,0.0,81,0.00,CLR,,0.00,WeatherDisplay:10.37,2013-12-07 17:47:00,
2013-12-07 12:52:00,77.4,70.4,30.16,WSW,252,4.6,4.6,79,0.00,CLR,,0.00,WeatherDisplay:10.37,2013-12-07 17:52:00,
2013-12-07 12:57:00,77.5,70.5,30.16,WSW,248,3.5,3.5,79,0.00,CLR,,0.00,WeatherDisplay:10.37,2013-12-07 17:57:00,
2013-12-07 13:02:00,77.6,70.6,30.16,SW,223,10.0,10.0,79,0.00,CLR,,0.00,WeatherDisplay:10.37,2013-12-07 18:02:00,
2013-12-07 13:07:00,77.8,70.4,30.15,SW,223,5.8,5.8,78,0.00,CLR,,0.00,WeatherDisplay:10.37,2013-12-07 18:07:00,
2013-12-07 13:12:00,78.1,70.7,30.15,SW,216,6.9,6.9,78,0.00,CLR,,0.00,WeatherDisplay:10.37,2013-12-07 18:12:00,
2013-12-07 13:17:00,78.1,70.7,30.15,WSW,252,4.6,0.0,78,0.00,CLR,,0.00,WeatherDisplay:10.37,2013-12-07 18:17:00,
2013-12-07 13:22:00,78.3,70.5,30.15,WSW,240,4.6,4.6,77,0.00,CLR,,0.00,WeatherDisplay:10.37,2013-12-07 18:22:00,
2013-12-07 13:27:00,78.5,70.7,30.15,SW,231,4.6,4.6,77,0.00,CLR,,0.00,WeatherDisplay:10.37,2013-12-07 18:27:00,
2013-12-07 13:32:00,78.8,70.6,30.14,WSW,244,11.5,11.5,76,0.00,CLR,,0.00,WeatherDisplay:10.37,2013-12-07 18:32:00,
2013-12-07 13:37:00,78.7,70.5,30.14,West,269,8.1,8.1,76,0.00,CLR,,0.00,WeatherDisplay:10.37,2013-12-07 18:37:00,
2013-12-07 13:42:00,78.5,70.3,30.14,SW,236,8.1,8.1,76,0.00,CLR,,0.00,WeatherDisplay:10.37,2013-12-07 18:42:00,
2013-12-07 13:47:00,78.4,70.6,30.14,SW,227,6.9,6.9,77,0.00,CLR,,0.00,WeatherDisplay:10.37,2013-12-07 18:47:00,
2013-12-07 13:52:00,78.3,70.5,30.14,SW,227,6.9,6.9,77,0.00,CLR,,0.00,WeatherDisplay:10.37,2013-12-07 18:52:00,
2013-12-07 13:57:00,78.2,70.4,30.14,SW,225,6.9,6.9,77,0.00,CLR,,0.00,WeatherDisplay:10.37,2013-12-07 18:57:00,
2013-12-07 14:02:00,78.0,70.2,30.14,SW,228,6.9,0.0,77,0.00,CLR,,0.00,WeatherDisplay:10.37,2013-12-07 19:02:00,
2013-12-07 14:07:00,77.8,70.4,30.14,WSW,243,8.1,8.1,78,0.00,CLR,,0.00,WeatherDisplay:10.37,2013-12-07 19:07:00,
2013-12-07 14:12:00,77.6,70.2,30.14,SW,221,6.9,6.9,78,0.00,CLR,,0.00,WeatherDisplay:10.37,2013-12-07 19:12:00,
2013-12-07 14:17:00,77.6,70.2,30.14,WNW,287,8.1,8.1,78,0.00,CLR,,0.00,WeatherDisplay:10.37,2013-12-07 19:17:00,
2013-12-07 14:22:00,77.6,70.2,30.14,SW,216,11.5,11.5,78,0.00,CLR,,0.00,WeatherDisplay:10.37,2013-12-07 19:22:00,
2013-12-07 14:27:00,77.5,70.1,30.14,West,275,3.0,3.0,78,0.00,CLR,,0.00,WeatherDisplay:10.37,2013-12-07 19:27:00,
2013-12-07 14:32:00,77.5,70.1,30.14,SW,225,3.5,3.5,78,0.00,CLR,,0.00,WeatherDisplay:10.37,2013-12-07 19:32:00,
2013-12-07 14:37:00,77.5,70.1,30.14,SW,227,0.0,0.0,78,0.00,CLR,,0.00,WeatherDisplay:10.37,2013-12-07 19:37:00,
2013-12-07 14:42:00,77.5,70.1,30.13,SW,227,0.0,0.0,78,0.00,CLR,,0.00,WeatherDisplay:10.37,2013-12-07 19:42:00,
2013-12-07 14:47:00,77.6,70.2,30.13,WSW,257,3.5,3.5,78,0.00,CLR,,0.00,WeatherDisplay:10.37,2013-12-07 19:47:00,
2013-12-07 14:52:00,77.6,69.8,30.14,SW,217,4.6,4.6,77,0.00,CLR,,0.00,WeatherDisplay:10.37,2013-12-07 19:52:00,
2013-12-07 14:57:00,77.5,69.7,30.14,WNW,288,4.6,4.6,77,0.00,CLR,,0.00,WeatherDisplay:10.37,2013-12-07 19:57:00,
2013-12-07 15:02:00,77.3,69.5,30.14,West,266,3.5,3.5,77,0.00,CLR,,0.00,WeatherDisplay:10.37,2013-12-07 20:02:00,
2013-12-07 15:07:00,77.2,69.4,30.13,SW,236,0.0,0.0,77,0.00,CLR,,0.00,WeatherDisplay:10.37,2013-12-07 20:07:00,
2013-12-07 15:12:00,77.0,69.6,30.13,WNW,287,3.5,3.5,78,0.00,CLR,,0.00,WeatherDisplay:10.37,2013-12-07 20:12:00,
2013-12-07 15:17:00,76.9,69.9,30.13,WNW,287,0.0,0.0,79,0.00,CLR,,0.00,WeatherDisplay:10.37,2013-12-07 20:17:00,
2013-12-07 15:22:00,76.7,69.7,30.13,WNW,286,0.0,0.0,79,0.00,CLR,,0.00,WeatherDisplay:10.37,2013-12-07 20:22:00,
2013-12-07 15:27:00,76.6,69.6,30.14,WNW,286,0.0,0.0,79,0.00,CLR,,0.00,WeatherDisplay:10.37,2013-12-07 20:27:00,
2013-12-07 15:32:00,76.6,69.6,30.14,WSW,242,3.5,3.5,79,0.00,CLR,,0.00,WeatherDisplay:10.37,2013-12-07 20:32:00,
2013-12-07 15:37:00,76.5,69.9,30.14,WSW,242,1.0,1.0,80,0.00,CLR,,0.00,WeatherDisplay:10.37,2013-12-07 20:37:00,
2013-12-07 15:42:00,76.4,69.8,30.14,WSW,242,0.0,0.0,80,0.00,CLR,,0.00,WeatherDisplay:10.37,2013-12-07 20:42:00,
2013-12-07 15:47:00,76.3,69.7,30.14,WSW,241,0.0,0.0,80,0.00,CLR,,0.00,WeatherDisplay:10.37,2013-12-07 20:47:00,
2013-12-07 15:52:00,76.2,69.6,30.14,WSW,254,3.5,3.5,80,0.00,CLR,,0.00,WeatherDisplay:10.37,2013-12-07 20:52:00,
2013-12-07 15:57:00,76.0,69.4,30.14,WSW,254,0.0,0.0,80,0.00,CLR,,0.00,WeatherDisplay:10.37,2013-12-07 20:57:00,
2013-12-07 16:02:00,76.0,69.7,30.14,WSW,253,0.0,0.0,81,0.00,CLR,,0.00,WeatherDisplay:10.37,2013-12-07 21:02:00,
2013-12-07 16:07:00,75.9,69.6,30.14,WSW,254,0.0,0.0,81,0.00,CLR,,0.00,WeatherDisplay:10.37,2013-12-07 21:07:00,
2013-12-07 16:12:00,75.9,69.6,30.14,WSW,254,0.0,0.0,81,0.00,CLR,,0.00,WeatherDisplay:10.37,2013-12-07 21:12:00,
2013-12-07 16:17:00,75.8,69.6,30.14,WSW,254,0.0,0.0,81,0.00,CLR,,0.00,WeatherDisplay:10.37,2013-12-07 21:17:00,
2013-12-07 16:22:00,75.7,69.8,30.14,WSW,254,0.0,0.0,82,0.00,CLR,,0.00,WeatherDisplay:10.37,2013-12-07 21:22:00,
2013-12-07 16:27:00,75.7,69.8,30.14,WSW,254,0.0,0.0,82,0.00,CLR,,0.00,WeatherDisplay:10.37,2013-12-07 21:27:00,
2013-12-07 16:32:00,75.7,69.8,30.15,WSW,254,0.0,0.0,82,0.00,CLR,,0.00,WeatherDisplay:10.37,2013-12-07 21:32:00,
2013-12-07 16:37:00,75.7,69.8,30.15,WSW,254,0.0,0.0,82,0.00,CLR,,0.00,WeatherDisplay:10.37,2013-12-07 21:37:00,
2013-12-07 16:42:00,75.6,69.7,30.15,WSW,254,0.0,0.0,82,0.00,CLR,,0.00,WeatherDisplay:10.37,2013-12-07 21:42:00,
2013-12-07 16:47:00,75.6,69.7,30.15,WSW,253,0.0,0.0,82,0.00,CLR,,0.00,WeatherDisplay:10.37,2013-12-07 21:47:00,
2013-12-07 16:52:00,75.5,69.6,30.15,WSW,254,0.0,0.0,82,0.00,CLR,,0.00,WeatherDisplay:10.37,2013-12-07 21:52:00,
2013-12-07 16:57:00,75.4,69.5,30.15,WSW,254,0.0,0.0,82,0.00,CLR,,0.00,WeatherDisplay:10.37,2013-12-07 21:57:00,
2013-12-07 17:02:00,75.4,69.9,30.15,WSW,254,0.0,0.0,83,0.00,CLR,,0.00,WeatherDisplay:10.37,2013-12-07 22:02:00,
2013-12-07 17:07:00,75.2,69.7,30.15,WSW,254,0.0,0.0,83,0.00,CLR,,0.00,WeatherDisplay:10.37,2013-12-07 22:07:00,
2013-12-07 17:12:00,75.0,69.8,30.15,WSW,254,0.0,0.0,84,0.00,CLR,,0.00,WeatherDisplay:10.37,2013-12-07 22:12:00,
2013-12-07 17:17:00,74.8,70.0,30.15,WSW,253,0.0,0.0,85,0.00,CLR,,0.00,WeatherDisplay:10.37,2013-12-07 22:17:00,
2013-12-07 17:22:00,74.6,69.8,30.15,WSW,254,0.0,0.0,85,0.00,CLR,,0.00,WeatherDisplay:10.37,2013-12-07 22:22:00,
2013-12-07 17:27:00,74.5,69.3,30.15,WSW,254,0.0,0.0,84,0.00,CLR,,0.00,WeatherDisplay:10.37,2013-12-07 22:27:00,
2013-12-07 17:32:00,74.4,69.6,30.15,WSW,254,0.0,0.0,85,0.00,CLR,,0.00,WeatherDisplay:10.37,2013-12-07 22:32:00,
2013-12-07 17:37:00,74.2,69.4,30.15,WSW,254,0.0,0.0,85,0.00,CLR,,0.00,WeatherDisplay:10.37,2013-12-07 22:37:00,
2013-12-07 17:42:00,74.1,69.3,30.16,WSW,254,0.0,0.0,85,0.00,CLR,,0.00,WeatherDisplay:10.37,2013-12-07 22:42:00,
2013-12-07 17:47:00,74.0,69.2,30.16,WSW,254,0.0,0.0,85,0.00,CLR,,0.00,WeatherDisplay:10.37,2013-12-07 22:47:00,
2013-12-07 17:52:00,73.9,69.4,30.16,WSW,254,0.0,0.0,86,0.00,CLR,,0.00,WeatherDisplay:10.37,2013-12-07 22:52:00,
2013-12-07 17:57:00,73.8,69.3,30.16,WSW,254,0.0,0.0,86,0.00,CLR,,0.00,WeatherDisplay:10.37,2013-12-07 22:57:00,
2013-12-07 18:02:00,73.6,69.2,30.16,WSW,254,0.0,0.0,86,0.00,CLR,,0.00,WeatherDisplay:10.37,2013-12-07 23:02:00,
2013-12-07 18:07:00,73.5,69.1,30.17,WSW,254,0.0,0.0,86,0.00,CLR,,0.00,WeatherDisplay:10.37,2013-12-07 23:07:00,
2013-12-07 18:12:00,73.4,69.0,30.17,WSW,254,0.0,0.0,86,0.00,CLR,,0.00,WeatherDisplay:10.37,2013-12-07 23:12:00,
2013-12-07 18:17:00,73.2,68.8,30.17,WSW,254,0.0,0.0,86,0.00,CLR,,0.00,WeatherDisplay:10.37,2013-12-07 23:17:00,
2013-12-07 18:22:00,73.2,69.1,30.17,WSW,254,0.0,0.0,87,0.00,CLR,,0.00,WeatherDisplay:10.37,2013-12-07 23:22:00,
2013-12-07 18:27:00,73.1,69.0,30.17,WSW,254,0.0,0.0,87,0.00,CLR,,0.00,WeatherDisplay:10.37,2013-12-07 23:27:00,
2013-12-07 18:32:00,73.0,69.2,30.17,WSW,254,0.0,0.0,88,0.00,CLR,,0.00,WeatherDisplay:10.37,2013-12-07 23:32:00,
2013-12-07 18:37:00,72.8,69.0,30.17,WSW,254,0.0,0.0,88,0.00,CLR,,0.00,WeatherDisplay:10.37,2013-12-07 23:37:00,
2013-12-07 18:42:00,72.7,68.9,30.18,WSW,253,0.0,0.0,88,0.00,CLR,,0.00,WeatherDisplay:10.37,2013-12-07 23:42:00,
2013-12-07 18:47:00,72.6,68.8,30.18,WSW,254,0.0,0.0,88,0.00,CLR,,0.00,WeatherDisplay:10.37,2013-12-07 23:47:00,
2013-12-07 18:52:00,72.5,69.1,30.18,WSW,254,0.0,0.0,89,0.00,CLR,,0.00,WeatherDisplay:10.37,2013-12-07 23:52:00,
2013-12-07 18:57:00,72.5,69.1,30.18,WSW,253,0.0,0.0,89,0.00,CLR,,0.00,WeatherDisplay:10.37,2013-12-07 23:57:00,
2013-12-07 19:02:00,72.4,69.0,30.18,WSW,254,0.0,0.0,89,0.00,CLR,,0.00,WeatherDisplay:10.37,2013-12-08 00:02:00,
2013-12-07 19:07:00,72.3,69.2,30.18,WSW,254,0.0,0.0,90,0.00,CLR,,0.00,WeatherDisplay:10.37,2013-12-08 00:07:00,
2013-12-07 19:12:00,72.2,69.1,30.18,WSW,254,0.0,0.0,90,0.00,CLR,,0.00,WeatherDisplay:10.37,2013-12-08 00:12:00,
2013-12-07 19:17:00,72.1,69.0,30.18,WSW,254,0.0,0.0,90,0.00,CLR,,0.00,WeatherDisplay:10.37,2013-12-08 00:17:00,
2013-12-07 19:22:00,72.0,68.9,30.18,WSW,253,0.0,0.0,90,0.00,CLR,,0.00,WeatherDisplay:10.37,2013-12-08 00:22:00,
2013-12-07 19:27:00,71.9,68.8,30.18,WSW,254,0.0,0.0,90,0.00,CLR,,0.00,WeatherDisplay:10.37,2013-12-08 00:27:00,
2013-12-07 19:32:00,71.9,69.1,30.18,WSW,254,0.0,0.0,91,0.00,CLR,,0.00,WeatherDisplay:10.37,2013-12-08 00:32:00,
2013-12-07 19:37:00,71.8,69.0,30.18,WSW,253,0.0,0.0,91,0.00,CLR,,0.00,WeatherDisplay:10.37,2013-12-08 00:37:00,
2013-12-07 19:42:00,71.7,68.9,30.18,WSW,254,0.0,0.0,91,0.00,CLR,,0.00,WeatherDisplay:10.37,2013-12-08 00:42:00,
2013-12-07 19:47:00,71.7,68.9,30.18,WSW,254,0.0,0.0,91,0.00,CLR,,0.00,WeatherDisplay:10.37,2013-12-08 00:47:00,
2013-12-07 19:52:00,71.5,68.7,30.18,WSW,254,0.0,0.0,91,0.00,CLR,,0.00,WeatherDisplay:10.37,2013-12-08 00:52:00,
2013-12-07 19:57:00,71.5,69.1,30.19,WSW,253,0.0,0.0,92,0.00,CLR,,0.00,WeatherDisplay:10.37,2013-12-08 00:57:00,
2013-12-07 20:02:00,71.4,69.0,30.18,WSW,254,0.0,0.0,92,0.00,CLR,,0.00,WeatherDisplay:10.37,2013-12-08 01:02:00,
2013-12-07 20:07:00,71.3,68.9,30.19,WSW,253,0.0,0.0,92,0.00,CLR,,0.00,WeatherDisplay:10.37,2013-12-08 01:07:00,
2013-12-07 20:12:00,71.3,68.9,30.19,WSW,254,0.0,0.0,92,0.00,CLR,,0.00,WeatherDisplay:10.37,2013-12-08 01:12:00,
2013-12-07 20:17:00,71.3,68.9,30.19,WNW,301,9.2,9.2,92,0.00,CLR,,0.00,WeatherDisplay:10.37,2013-12-08 01:17:00,
2013-12-07 20:22:00,71.3,68.9,30.20,West,279,5.0,5.0,92,0.01,RA,,0.02,WeatherDisplay:10.37,2013-12-08 01:22:00,
2013-12-07 20:27:00,71.2,69.1,30.20,West,272,4.6,4.6,93,0.13,RA,,0.15,WeatherDisplay:10.37,2013-12-08 01:27:00,
2013-12-07 20:32:00,71.0,68.9,30.20,West,272,3.0,3.0,93,0.20,RA,,0.21,WeatherDisplay:10.37,2013-12-08 01:32:00,
2013-12-07 20:37:00,70.8,68.7,30.20,West,273,0.0,0.0,93,0.23,RA,,0.23,WeatherDisplay:10.37,2013-12-08 01:37:00,
2013-12-07 20:42:00,70.7,68.6,30.20,West,272,0.0,0.0,93,0.24,RA,,0.24,WeatherDisplay:10.37,2013-12-08 01:42:00,
2013-12-07 20:47:00,70.6,68.5,30.20,West,272,0.0,0.0,93,0.24,RA,,0.24,WeatherDisplay:10.37,2013-12-08 01:47:00,
2013-12-07 20:52:00,70.6,68.8,30.20,West,272,0.0,0.0,94,0.24,CLR,,0.24,WeatherDisplay:10.37,2013-12-08 01:52:00,
2013-12-07 20:57:00,70.6,68.8,30.20,West,273,0.0,0.0,94,0.24,CLR,,0.24,WeatherDisplay:10.37,2013-12-08 01:57:00,
2013-12-07 21:02:00,70.6,68.8,30.20,West,273,2.3,0.0,94,0.24,CLR,,0.24,WeatherDisplay:10.37,2013-12-08 02:02:00,
2013-12-07 21:07:00,70.5,68.7,30.20,West,272,0.0,0.0,94,0.24,CLR,,0.24,WeatherDisplay:10.37,2013-12-08 02:07:00,
2013-12-07 21:12:00,70.5,68.7,30.20,West,272,0.0,0.0,94,0.24,CLR,,0.24,WeatherDisplay:10.37,2013-12-08 02:12:00,
2013-12-07 21:17:00,70.4,68.6,30.21,West,273,0.0,0.0,94,0.24,CLR,,0.24,WeatherDisplay:10.37,2013-12-08 02:17:00,
2013-12-07 21:22:00,70.4,68.6,30.21,West,273,0.0,0.0,94,0.23,CLR,,0.24,WeatherDisplay:10.37,2013-12-08 02:22:00,
2013-12-07 21:27:00,70.4,68.6,30.21,West,272,0.0,0.0,94,0.11,CLR,,0.24,WeatherDisplay:10.37,2013-12-08 02:27:00,
2013-12-07 21:32:00,70.3,68.8,30.21,West,273,0.0,0.0,95,0.04,CLR,,0.24,WeatherDisplay:10.37,2013-12-08 02:32:00,
2013-12-07 21:37:00,70.3,68.8,30.21,West,272,0.0,0.0,95,0.01,CLR,,0.24,WeatherDisplay:10.37,2013-12-08 02:37:00,
2013-12-07 21:42:00,70.2,68.7,30.22,North,9,4.0,4.0,95,0.00,CLR,,0.24,WeatherDisplay:10.37,2013-12-08 02:42:00,
2013-12-07 21:47:00,70.0,68.5,30.22,North,355,10.0,10.0,95,0.00,CLR,,0.24,WeatherDisplay:10.37,2013-12-08 02:47:00,
2013-12-07 21:52:00,68.6,66.5,30.23,East,83,16.1,16.1,93,0.00,CLR,,0.24,WeatherDisplay:10.37,2013-12-08 02:52:00,
2013-12-07 21:57:00,66.9,64.5,30.23,ENE,77,8.1,8.1,92,0.01,RA,,0.25,WeatherDisplay:10.37,2013-12-08 02:57:00,
2013-12-07 22:02:00,65.6,63.2,30.23,ENE,67,13.8,13.8,92,0.01,RA,,0.25,WeatherDisplay:10.37,2013-12-08 03:02:00,
2013-12-07 22:07:00,64.8,62.7,30.23,ENE,76,11.5,11.5,93,0.01,,,0.25,WeatherDisplay:10.37,2013-12-08 03:07:00,
2013-12-07 22:12:00,64.2,62.1,30.23,ESE,102,11.5,11.5,93,0.01,CLR,,0.25,WeatherDisplay:10.37,2013-12-08 03:12:00,
2013-12-07 22:17:00,63.5,61.4,30.24,East,101,10.4,10.4,93,0.01,CLR,,0.25,WeatherDisplay:10.37,2013-12-08 03:17:00,
2013-12-07 22:22:00,62.7,60.6,30.24,East,84,16.1,16.1,93,0.01,CLR,,0.25,WeatherDisplay:10.37,2013-12-08 03:22:00,
2013-12-07 22:27:00,62.2,60.2,30.24,East,83,11.5,11.5,93,0.02,RA,,0.26,WeatherDisplay:10.37,2013-12-08 03:27:00,
2013-12-07 22:32:00,61.8,60.1,30.24,ESE,115,8.1,8.1,94,0.02,RA,,0.26,WeatherDisplay:10.37,2013-12-08 03:32:00,
2013-12-07 22:37:00,61.6,59.9,30.24,East,99,8.1,8.1,94,0.02,CLR,,0.26,WeatherDisplay:10.37,2013-12-08 03:37:00,
2013-12-07 22:42:00,61.3,59.6,30.24,East,97,10.4,10.4,94,0.02,CLR,,0.26,WeatherDisplay:10.37,2013-12-08 03:42:00,
2013-12-07 22:47:00,60.9,59.2,30.25,ESE,102,8.1,8.1,94,0.02,CLR,,0.26,WeatherDisplay:10.37,2013-12-08 03:47:00,
2013-12-07 22:52:00,60.7,59.0,30.25,East,96,10.4,10.4,94,0.02,CLR,,0.26,WeatherDisplay:10.37,2013-12-08 03:52:00,
2013-12-07 22:57:00,60.4,58.7,30.25,ESE,113,9.0,9.0,94,0.01,CLR,,0.26,WeatherDisplay:10.37,2013-12-08 03:57:00,
2013-12-07 23:02:00,60.2,58.8,30.25,East,101,6.9,6.9,95,0.01,CLR,,0.26,WeatherDisplay:10.37,2013-12-08 04:02:00,
2013-12-07 23:07:00,60.0,58.3,30.25,ENE,63,9.2,9.2,94,0.01,CLR,,0.26,WeatherDisplay:10.37,2013-12-08 04:07:00,
2013-12-07 23:12:00,59.9,58.5,30.25,ESE,104,6.9,6.9,95,0.01,CLR,,0.26,WeatherDisplay:10.37,2013-12-08 04:12:00,
2013-12-07 23:17:00,59.7,58.3,30.25,East,98,10.4,10.4,95,0.01,CLR,,0.26,WeatherDisplay:10.37,2013-12-08 04:17:00,
2013-12-07 23:22:00,59.5,58.1,30.25,ESE,107,11.5,11.5,95,0.01,CLR,,0.26,WeatherDisplay:10.37,2013-12-08 04:22:00,
2013-12-07 23:27:00,59.5,58.1,30.25,East,99,4.6,4.6,95,0.00,CLR,,0.26,WeatherDisplay:10.37,2013-12-08 04:27:00,
2013-12-07 23:32:00,59.3,57.9,30.25,East,84,10.4,10.4,95,0.00,CLR,,0.26,WeatherDisplay:10.37,2013-12-08 04:32:00,
2013-12-07 23:37:00,59.1,57.7,30.25,East,101,6.9,6.9,95,0.00,CLR,,0.26,WeatherDisplay:10.37,2013-12-08 04:37:00,
2013-12-07 23:42:00,59.0,57.6,30.25,ESE,111,10.0,10.0,95,0.00,CLR,,0.26,WeatherDisplay:10.37,2013-12-08 04:42:00,
2013-12-07 23:47:00,59.0,57.6,30.24,ENE,69,9.2,9.2,95,0.00,CLR,,0.26,WeatherDisplay:10.37,2013-12-08 04:47:00,
2013-12-07 23:52:00,59.0,57.6,30.24,East,98,5.8,5.8,95,0.00,CLR,,0.26,WeatherDisplay:10.37,2013-12-08 04:52:00,
2013-12-07 23:57:00,59.0,57.6,30.25,East,95,4.6,4.6,95,0.00,CLR,,0.26,WeatherDisplay:10.37,2013-12-08 04:57:00,